createdAt,value
2023-04-14T00:02:00.097Z,100031.50
2023-04-14T00:04:27.600Z,100098.28
2023-04-14T00:06:56.960Z,100081.78
2023-04-14T00:09:23.320Z,100070.84
2023-04-14T00:11:50.596Z,100130.06
2023-04-14T00:14:17.041Z,99997.34
2023-04-14T00:16:43.961Z,100090.16
2023-04-14T00:19:10.526Z,100079.88
2023-04-14T00:21:36.939Z,100152.03
2023-04-14T00:24:03.384Z,100218.19
2023-04-14T00:26:32.014Z,100206.94
2023-04-14T00:28:58.451Z,100163.31
2023-04-14T00:31:24.998Z,100041.06
2023-04-14T00:33:51.376Z,100185.50
2023-04-14T00:36:17.844Z,100188.31
2023-04-14T00:38:44.261Z,100168.19
2023-04-14T00:41:10.613Z,100186.81
2023-04-14T00:43:38.770Z,100031.03
2023-04-14T00:46:06.058Z,100153.38
2023-04-14T00:48:32.586Z,100066.88
2023-04-14T00:50:59.346Z,100191.72
2023-04-14T00:53:27.286Z,100088.78
2023-04-14T00:55:53.712Z,100069.63
2023-04-14T00:58:20.112Z,100218.22
2023-04-14T01:00:53.653Z,100193.44
2023-04-14T01:03:20.255Z,100048.59
2023-04-14T01:05:46.948Z,100138.00
2023-04-14T01:08:13.868Z,100101.16
2023-04-14T01:10:49.410Z,100198.47
2023-04-14T01:13:50.544Z,100114.53
2023-04-14T01:16:29.396Z,100204.69
2023-04-14T01:19:16.767Z,100233.78
2023-04-14T01:21:49.799Z,100220.13
2023-04-14T01:24:16.170Z,100235.50
2023-04-14T01:26:43.898Z,100196.06
2023-04-14T01:29:28.553Z,100242.44
2023-04-14T01:32:02.758Z,100211.72
2023-04-14T01:34:37.532Z,100239.91
2023-04-14T01:37:13.641Z,100205.69
2023-04-14T01:39:42.682Z,100174.75
2023-04-14T01:42:14.857Z,100211.78
2023-04-14T01:44:42.794Z,100221.34
2023-04-14T01:47:13.685Z,100133.28
2023-04-14T01:49:42.311Z,100212.25
2023-04-14T01:52:11.391Z,100238.75
2023-04-14T01:54:41.384Z,100204.41
2023-04-14T01:57:10.439Z,100207.09
2023-04-14T01:59:38.167Z,100211.38
2023-04-14T02:02:07.818Z,100254.28
2023-04-14T02:04:36.747Z,100240.63
2023-04-14T02:07:05.280Z,100148.75
2023-04-14T02:09:32.984Z,100259.53
2023-04-14T02:12:01.079Z,100128.25
2023-04-14T02:14:29.277Z,100216.06
2023-04-14T02:16:57.319Z,100224.66
2023-04-14T02:19:24.529Z,100227.25
2023-04-14T02:21:52.215Z,100257.38
2023-04-14T02:24:19.299Z,100167.50
2023-04-14T02:27:03.367Z,100265.66
2023-04-14T02:29:32.904Z,100132.59
2023-04-14T02:32:14.704Z,100058.00
2023-04-14T02:34:53.857Z,100248.75
2023-04-14T02:37:27.709Z,100253.72
2023-04-14T02:40:01.915Z,100075.09
2023-04-14T02:42:30.254Z,100257.28
2023-04-14T02:45:11.985Z,100224.53
2023-04-14T02:47:41.856Z,100255.41
2023-04-14T02:50:12.615Z,100148.94
2023-04-14T02:52:40.592Z,100250.22
2023-04-14T02:55:08.761Z,100228.56
2023-04-14T02:57:35.888Z,100264.69
2023-04-14T03:00:03.768Z,100277.53
2023-04-14T03:02:31.696Z,100133.25
2023-04-14T03:04:58.959Z,100115.97
2023-04-14T03:07:27.295Z,100135.69
2023-04-14T03:09:54.942Z,100254.97
2023-04-14T03:12:22.357Z,100138.91
2023-04-14T03:14:50.930Z,100154.41
2023-04-14T03:17:20.870Z,100284.38
2023-04-14T03:19:49.448Z,100092.88
2023-04-14T03:22:19.629Z,100296.69
2023-04-14T03:24:47.094Z,100198.84
2023-04-14T03:27:16.583Z,100110.34
2023-04-14T03:29:51.111Z,100187.78
2023-04-14T03:32:19.207Z,100030.72
2023-04-14T03:34:49.890Z,100143.81
2023-04-14T03:37:20.772Z,100066.72
2023-04-14T03:39:50.654Z,100053.78
2023-04-14T03:42:19.518Z,100206.25
2023-04-14T03:44:51.512Z,100140.00
2023-04-14T03:47:19.182Z,100208.53
2023-04-14T03:49:49.160Z,100261.94
2023-04-14T03:52:16.970Z,100305.69
2023-04-14T03:54:46.512Z,100260.13
2023-04-14T03:57:17.562Z,100270.44
2023-04-14T03:59:44.992Z,100187.03
2023-04-14T04:02:11.913Z,100270.38
2023-04-14T04:04:39.942Z,100265.41
2023-04-14T04:07:10.405Z,100211.25
2023-04-14T04:09:38.200Z,100260.97
2023-04-14T04:12:05.737Z,100281.56
2023-04-14T04:14:33.282Z,100222.31
2023-04-14T04:17:05.655Z,100140.72
2023-04-14T04:19:34.236Z,100282.66
2023-04-14T04:22:02.165Z,100139.22
2023-04-14T04:24:33.312Z,100154.50
2023-04-14T04:27:01.273Z,100117.34
2023-04-14T04:29:28.362Z,100286.69
2023-04-14T04:31:55.647Z,100259.94
2023-04-14T04:34:23.530Z,100235.91
2023-04-14T04:36:50.531Z,100268.66
2023-04-14T04:39:19.713Z,100267.28
2023-04-14T04:41:46.409Z,100234.72
2023-04-14T04:44:12.913Z,100184.63
2023-04-14T04:46:55.946Z,100280.94
2023-04-14T04:49:22.986Z,100296.44
2023-04-14T04:51:49.722Z,100154.00
2023-04-14T04:54:16.888Z,100291.72
2023-04-14T04:56:43.304Z,100254.00
2023-04-14T04:59:10.674Z,100252.41
2023-04-14T05:01:37.302Z,100236.81
2023-04-14T05:04:04.020Z,100248.69
2023-04-14T05:06:30.438Z,100295.16
2023-04-14T05:08:57.360Z,100284.84
2023-04-14T05:11:23.761Z,100237.56
2023-04-14T05:13:50.240Z,100301.34
2023-04-14T05:16:17.234Z,100274.69
2023-04-14T05:18:43.813Z,100195.53
2023-04-14T05:21:15.405Z,100304.94
2023-04-14T05:23:43.819Z,100250.69
2023-04-14T05:28:42.426Z,100276.16
2023-04-14T05:31:08.894Z,100175.28
2023-04-14T05:33:35.468Z,100299.09
2023-04-14T05:36:01.925Z,100253.28
2023-04-14T05:38:28.428Z,100139.75
2023-04-14T05:40:54.790Z,100289.28
2023-04-14T05:43:21.153Z,100160.09
2023-04-14T05:45:47.589Z,100286.50
2023-04-14T05:48:14.769Z,100298.44
2023-04-14T05:50:41.408Z,100276.19
2023-04-14T05:53:07.801Z,100154.88
2023-04-14T05:55:34.324Z,100181.41
2023-04-14T05:58:00.804Z,100152.91
2023-04-14T06:00:27.536Z,100192.41
2023-04-14T06:02:54.170Z,100201.78
2023-04-14T06:05:20.765Z,100144.13
2023-04-14T06:07:47.193Z,100092.38
2023-04-14T06:10:13.680Z,100288.31
2023-04-14T06:12:40.066Z,100182.50
2023-04-14T06:15:07.003Z,100278.66
2023-04-14T06:17:33.826Z,100300.97
2023-04-14T06:20:00.257Z,100171.91
2023-04-14T06:23:04.613Z,100332.78
2023-04-14T06:25:31.065Z,100208.72
2023-04-14T06:27:57.437Z,100150.31
2023-04-14T06:30:25.654Z,100148.31
2023-04-14T06:32:54.258Z,100138.75
2023-04-14T06:35:32.288Z,100232.47
2023-04-14T06:37:59.202Z,100304.44
2023-04-14T06:40:25.626Z,100156.63
2023-04-14T06:42:52.090Z,100126.38
2023-04-14T06:45:19.496Z,100206.13
2023-04-14T06:47:46.028Z,100242.06
2023-04-14T06:50:12.556Z,100256.63
2023-04-14T06:52:38.966Z,100186.06
2023-04-14T06:55:06.578Z,100214.22
2023-04-14T06:57:33.069Z,100279.44
2023-04-14T06:59:59.549Z,100161.63
2023-04-14T07:02:26.024Z,100261.19
2023-04-14T07:04:52.524Z,100197.66
2023-04-14T07:07:19.017Z,100031.75
2023-04-14T07:09:45.589Z,100050.56
2023-04-14T07:12:13.945Z,100257.97
2023-04-14T07:14:42.501Z,100255.81
2023-04-14T07:17:09.426Z,100055.19
2023-04-14T07:19:36.080Z,100259.19
2023-04-14T07:22:02.511Z,100100.13
2023-04-14T07:24:28.971Z,100220.94
2023-04-14T07:26:57.564Z,100096.38
2023-04-14T07:29:24.032Z,100248.16
2023-04-14T07:31:50.650Z,100083.91
2023-04-14T07:34:17.261Z,100247.63
2023-04-14T07:36:43.647Z,100263.81
2023-04-14T07:39:10.276Z,100109.94
2023-04-14T07:41:36.758Z,100248.75
2023-04-14T07:44:03.433Z,100245.16
2023-04-14T07:46:30.322Z,100241.44
2023-04-14T07:48:56.848Z,100203.34
2023-04-14T07:51:23.205Z,100095.06
2023-04-14T07:53:50.986Z,100243.44
2023-04-14T07:56:17.345Z,100211.31
2023-04-14T07:58:43.780Z,100197.22
2023-04-14T08:01:10.507Z,100097.41
2023-04-14T08:03:37.743Z,100173.59
2023-04-14T08:06:07.993Z,100234.06
2023-04-14T08:08:35.273Z,100154.19
2023-04-14T08:11:01.769Z,100218.22
2023-04-14T08:13:30.649Z,100035.28
2023-04-14T08:15:57.289Z,100070.88
2023-04-14T08:18:23.681Z,100223.34
2023-04-14T08:20:50.210Z,100208.53
2023-04-14T08:23:16.967Z,100227.22
2023-04-14T08:25:44.470Z,100229.28
2023-04-14T08:28:11.051Z,100146.03
2023-04-14T08:30:37.551Z,100215.16
2023-04-14T08:33:04.300Z,100217.84
2023-04-14T08:35:38.890Z,100138.25
2023-04-14T08:38:08.578Z,100106.25
2023-04-14T08:40:43.944Z,100207.84
2023-04-14T08:43:13.134Z,100193.03
2023-04-14T08:45:42.059Z,100203.91
2023-04-14T08:48:11.547Z,100105.34
2023-04-14T08:50:45.938Z,100219.00
2023-04-14T08:53:13.404Z,100096.34
2023-04-14T08:55:43.087Z,100215.53
2023-04-14T08:58:12.268Z,100123.75
2023-04-14T09:00:40.315Z,100065.09
2023-04-14T09:03:08.865Z,100024.47
2023-04-14T09:05:36.291Z,100183.94
2023-04-14T09:08:03.992Z,100213.38
2023-04-14T09:10:31.258Z,100029.34
2023-04-14T09:12:57.720Z,100126.75
2023-04-14T09:15:27.324Z,100133.22
2023-04-14T09:17:55.110Z,100176.16
2023-04-14T09:20:36.314Z,100086.81
2023-04-14T09:23:08.151Z,100127.63
2023-04-14T09:25:34.628Z,100139.00
2023-04-14T09:28:01.244Z,100033.25
2023-04-14T09:30:28.778Z,100206.13
2023-04-14T09:32:58.902Z,100135.69
2023-04-14T09:35:47.583Z,100036.38
2023-04-14T09:38:15.034Z,100192.38
2023-04-14T09:40:47.544Z,100092.00
2023-04-14T09:43:27.603Z,100189.25
2023-04-14T09:45:55.252Z,99970.78
2023-04-14T09:48:22.308Z,100130.53
2023-04-14T09:51:02.033Z,100071.25
2023-04-14T09:53:30.546Z,100064.13
2023-04-14T09:56:02.844Z,100148.91
2023-04-14T09:58:34.517Z,100197.19
2023-04-14T10:01:04.859Z,100135.41
2023-04-14T10:03:44.281Z,100185.09
2023-04-14T10:06:13.491Z,100184.63
2023-04-14T10:08:41.850Z,100067.31
2023-04-14T10:11:14.753Z,100181.75
2023-04-14T10:13:41.435Z,100175.22
2023-04-14T10:16:08.827Z,100145.28
2023-04-14T10:18:36.067Z,100119.34
2023-04-14T10:21:03.788Z,99986.13
2023-04-14T10:23:31.670Z,100127.75
2023-04-14T10:25:58.335Z,100035.25
2023-04-14T10:28:26.220Z,100157.59
2023-04-14T10:30:55.974Z,100006.19
2023-04-14T10:33:32.175Z,100133.47
2023-04-14T10:36:03.802Z,100137.56
2023-04-14T10:38:44.432Z,99996.06
2023-04-14T10:41:11.757Z,99997.25
2023-04-14T10:43:39.526Z,100118.91
2023-04-14T10:46:07.850Z,100135.78
2023-04-14T10:48:36.647Z,100131.00
2023-04-14T10:51:09.679Z,100017.34
2023-04-14T10:53:50.525Z,100067.91
2023-04-14T10:56:21.448Z,100007.78
2023-04-14T10:58:59.082Z,100108.28
2023-04-14T11:01:31.792Z,100102.94
2023-04-14T11:04:16.755Z,100100.63
2023-04-14T11:06:46.784Z,100105.59
2023-04-14T11:09:26.451Z,100100.16
2023-04-14T11:11:55.352Z,100099.81
2023-04-14T11:14:30.593Z,100103.69
2023-04-14T11:17:05.095Z,100022.44
2023-04-14T11:19:34.618Z,100083.78
2023-04-14T11:22:01.298Z,99922.44
2023-04-14T11:24:28.820Z,99948.06
2023-04-14T11:26:57.820Z,100066.53
2023-04-14T11:29:27.001Z,99940.34
2023-04-14T11:32:37.484Z,99990.63
2023-04-14T11:35:08.853Z,100012.09
2023-04-14T11:37:36.336Z,99907.22
2023-04-14T11:40:05.468Z,99902.94
2023-04-14T11:42:33.732Z,100009.72
2023-04-14T11:45:00.184Z,99921.75
2023-04-14T11:47:27.016Z,99993.63
2023-04-14T11:49:55.995Z,99958.06
2023-04-14T11:52:22.836Z,100046.19
2023-04-14T11:54:49.490Z,100060.69
2023-04-14T11:57:18.817Z,99974.81
2023-04-14T11:59:46.938Z,100060.00
2023-04-14T12:02:21.991Z,100055.78
2023-04-14T12:04:51.130Z,99956.91
2023-04-14T12:07:19.924Z,99972.44
2023-04-14T12:09:49.315Z,100008.59
2023-04-14T12:12:19.949Z,99888.31
2023-04-14T12:14:48.420Z,100041.38
2023-04-14T12:17:15.814Z,99948.59
2023-04-14T12:19:42.833Z,99948.50
2023-04-14T12:22:09.562Z,100036.53
2023-04-14T12:24:39.870Z,100042.91
2023-04-14T12:27:07.142Z,100023.81
2023-04-14T12:29:34.806Z,100036.25
2023-04-14T12:32:14.960Z,100044.00
2023-04-14T12:34:52.023Z,100035.44
2023-04-14T12:37:25.491Z,99947.19
2023-04-14T12:39:54.174Z,100002.47
2023-04-14T12:42:20.626Z,100010.03
2023-04-14T12:45:00.757Z,99984.78
2023-04-14T12:47:32.384Z,99964.72
2023-04-14T12:50:21.959Z,100003.59
2023-04-14T12:52:48.479Z,100024.44
2023-04-14T12:55:23.448Z,99963.19
2023-04-14T12:57:59.544Z,99938.97
2023-04-14T13:00:27.644Z,100005.59
2023-04-14T13:02:58.081Z,100015.25
2023-04-14T13:05:24.562Z,99998.22
2023-04-14T13:07:50.913Z,99995.94
2023-04-14T13:10:17.313Z,99869.91
2023-04-14T13:12:43.704Z,99938.63
2023-04-14T13:16:12.002Z,99992.03
2023-04-14T13:17:57.008Z,99985.31
2023-04-14T13:20:23.501Z,99926.38
2023-04-14T13:22:49.841Z,99900.66
2023-04-14T13:25:16.865Z,99975.75
2023-04-14T13:27:43.301Z,99985.22
2023-04-14T13:30:10.316Z,99945.56
2023-04-14T13:32:36.724Z,99925.31
2023-04-14T13:35:03.931Z,99949.56
2023-04-14T13:37:30.409Z,99922.28
2023-04-14T13:39:56.796Z,99951.75
2023-04-14T13:42:23.154Z,99971.22
2023-04-14T13:44:49.992Z,99943.91
2023-04-14T13:47:18.666Z,99964.47
2023-04-14T13:49:45.061Z,99879.06
2023-04-14T13:52:11.607Z,99950.34
2023-04-14T13:54:37.997Z,99808.19
2023-04-14T13:57:04.462Z,99791.44
2023-04-14T13:59:30.962Z,99886.38
2023-04-14T14:01:59.936Z,99800.13
2023-04-14T14:04:28.361Z,99972.81
2023-04-14T14:06:54.907Z,99969.22
2023-04-14T14:09:21.250Z,99966.03
2023-04-14T14:11:47.676Z,99864.44
2023-04-14T14:14:14.794Z,99854.88
2023-04-14T14:16:41.385Z,99918.69
2023-04-14T14:19:09.886Z,99945.75
2023-04-14T14:21:36.530Z,99889.44
2023-04-14T14:24:03.246Z,99948.56
2023-04-14T14:26:29.870Z,99860.47
2023-04-14T14:28:56.475Z,99913.84
2023-04-14T14:31:23.006Z,99925.78
2023-04-14T14:33:49.372Z,99864.09
2023-04-14T14:36:15.812Z,99886.75
2023-04-14T14:38:42.202Z,99919.69
2023-04-14T14:41:08.600Z,99926.72
2023-04-14T14:43:35.070Z,99927.66
2023-04-14T14:46:01.647Z,99890.50
2023-04-14T14:48:28.136Z,99914.78
2023-04-14T14:50:54.521Z,99912.22
2023-04-14T14:53:20.849Z,99910.25
2023-04-14T14:55:47.197Z,99912.50
2023-04-14T14:58:13.535Z,99796.84
2023-04-14T15:00:39.989Z,99881.97
2023-04-14T15:03:06.710Z,99838.41
2023-04-14T15:05:33.638Z,99926.31
2023-04-14T15:08:00.290Z,99913.13
2023-04-14T15:10:26.835Z,99906.19
2023-04-14T15:12:53.776Z,99918.72
2023-04-14T15:15:20.204Z,99920.13
2023-04-14T15:17:46.824Z,99911.31
2023-04-14T15:20:13.325Z,99759.09
2023-04-14T15:22:40.149Z,99918.84
2023-04-14T15:25:09.115Z,99921.09
2023-04-14T15:27:35.948Z,99899.78
2023-04-14T15:30:03.211Z,99911.25
2023-04-14T15:32:29.604Z,99823.50
2023-04-14T15:34:56.189Z,99901.41
2023-04-14T15:37:22.666Z,99906.47
2023-04-14T15:39:50.057Z,99906.19
2023-04-14T15:42:16.408Z,99911.31
2023-04-14T15:44:43.018Z,99885.31
2023-04-14T15:47:09.455Z,99880.34
2023-04-14T15:49:35.941Z,99836.88
2023-04-14T15:52:02.616Z,99832.41
2023-04-14T15:54:29.039Z,99838.81
2023-04-14T15:56:55.435Z,99836.03
2023-04-14T15:59:22.295Z,99824.16
2023-04-14T16:01:48.825Z,99829.47
2023-04-14T16:04:15.435Z,99892.34
2023-04-14T16:06:41.926Z,99887.59
2023-04-14T16:09:08.347Z,99823.56
2023-04-14T16:11:34.882Z,99888.03
2023-04-14T16:14:01.648Z,99887.84
2023-04-14T16:16:28.478Z,99885.00
2023-04-14T16:18:54.999Z,99900.34
2023-04-14T16:21:21.509Z,99887.03
2023-04-14T16:23:47.976Z,99894.38
2023-04-14T16:26:15.775Z,99887.84
2023-04-14T16:28:42.401Z,99861.56
2023-04-14T16:31:09.104Z,99894.63
2023-04-14T16:33:35.996Z,99881.63
2023-04-14T16:36:07.150Z,99913.75
2023-04-14T16:38:36.136Z,99885.78
2023-04-14T16:41:03.336Z,99845.22
2023-04-14T16:43:29.921Z,99831.16
2023-04-14T16:46:04.024Z,99875.41
2023-04-14T16:48:32.291Z,99907.75
2023-04-14T16:51:09.222Z,99890.53
2023-04-14T16:53:36.789Z,99908.06
2023-04-14T16:56:05.628Z,99918.47
2023-04-14T16:58:32.141Z,99884.72
2023-04-14T17:00:58.810Z,99910.47
2023-04-14T17:03:25.489Z,99809.59
2023-04-14T17:05:52.169Z,99888.84
2023-04-14T17:08:18.536Z,99902.75
2023-04-14T17:10:45.089Z,99899.94
2023-04-14T17:13:11.451Z,99859.84
2023-04-14T17:15:38.617Z,99889.06
2023-04-14T17:18:05.106Z,99866.97
2023-04-14T17:20:31.789Z,99888.22
2023-04-14T17:23:01.080Z,99822.50
2023-04-14T17:25:27.718Z,99913.97
2023-04-14T17:27:54.069Z,99899.34
2023-04-14T17:30:20.400Z,99872.78
2023-04-14T17:32:48.740Z,99890.16
2023-04-14T17:35:15.240Z,99880.88
2023-04-14T17:37:41.696Z,99891.91
2023-04-14T17:40:08.566Z,99864.34
2023-04-14T17:42:36.047Z,99883.66
2023-04-14T17:45:02.456Z,99871.66
2023-04-14T17:47:28.985Z,99881.19
2023-04-14T17:49:55.537Z,99884.38
2023-04-14T17:52:22.204Z,99876.28
2023-04-14T17:54:49.803Z,99888.19
2023-04-14T17:57:17.127Z,99831.06
2023-04-14T17:59:44.785Z,99858.31
2023-04-14T18:02:15.468Z,99865.38
2023-04-14T18:04:42.029Z,99910.81
2023-04-14T18:07:08.350Z,99894.25
2023-04-14T18:09:34.931Z,99912.44
2023-04-14T18:12:01.428Z,99909.44
2023-04-14T18:14:27.828Z,99896.81
2023-04-14T18:16:54.561Z,99931.63
2023-04-14T18:19:22.159Z,99930.63
2023-04-14T18:21:49.155Z,99765.63
2023-04-14T18:26:45.063Z,99860.59
2023-04-14T18:29:11.991Z,99961.38
2023-04-14T18:31:38.497Z,99917.91
2023-04-14T18:34:05.746Z,99850.19
2023-04-14T18:36:32.513Z,99950.31
2023-04-14T18:39:00.284Z,99937.88
2023-04-14T18:41:27.014Z,99936.19
2023-04-14T18:43:53.630Z,99949.41
2023-04-14T18:46:21.173Z,99847.78
2023-04-14T18:48:48.351Z,99957.47
2023-04-14T18:51:15.964Z,99938.28
2023-04-14T18:53:44.556Z,99955.66
2023-04-14T18:56:11.013Z,99921.06
2023-04-14T18:58:38.016Z,99943.25
2023-04-14T19:01:04.465Z,99953.44
2023-04-14T19:03:31.700Z,99948.34
2023-04-14T19:05:59.067Z,99948.78
2023-04-14T19:08:25.702Z,99954.81
2023-04-14T19:10:52.383Z,99958.31
2023-04-14T19:13:19.571Z,99914.59
2023-04-14T19:15:46.088Z,99951.41
2023-04-14T19:18:12.511Z,99984.59
2023-04-14T19:20:38.837Z,99970.88
2023-04-14T19:23:05.232Z,99978.59
2023-04-14T19:25:31.640Z,99942.78
2023-04-14T19:28:01.069Z,99863.22
2023-04-14T19:30:28.940Z,99907.50
2023-04-14T19:32:55.316Z,99907.81
2023-04-14T19:35:22.423Z,99973.38
2023-04-14T19:37:48.795Z,99932.03
2023-04-14T19:40:15.260Z,99954.16
2023-04-14T19:42:41.601Z,99946.91
2023-04-14T19:45:08.517Z,99965.03
2023-04-14T19:47:35.019Z,99978.81
2023-04-14T19:50:02.428Z,99987.50
2023-04-14T19:52:28.789Z,99968.03
2023-04-14T19:54:56.698Z,99970.91
2023-04-14T19:57:23.901Z,99976.72
2023-04-14T19:59:50.275Z,99924.22
2023-04-14T20:02:16.820Z,99997.03
2023-04-14T20:04:45.021Z,99959.44
2023-04-14T20:07:11.529Z,100007.09
2023-04-14T20:09:39.712Z,99983.22
2023-04-14T20:12:06.114Z,99874.09
2023-04-14T20:14:32.998Z,99983.50
2023-04-14T20:16:59.525Z,100000.72
2023-04-14T20:19:26.116Z,100000.47
2023-04-14T20:21:52.457Z,99914.69
2023-04-14T20:24:18.882Z,100008.00
2023-04-14T20:26:45.618Z,100010.84
2023-04-14T20:29:12.813Z,100023.53
2023-04-14T20:31:39.658Z,100019.81
2023-04-14T20:34:06.307Z,100011.28
2023-04-14T20:36:35.671Z,99973.09
2023-04-14T20:39:04.690Z,100022.94
2023-04-14T20:41:32.487Z,99988.66
2023-04-14T20:43:58.967Z,99989.22
2023-04-14T20:46:25.381Z,99995.78
2023-04-14T20:48:55.016Z,100008.16
2023-04-14T20:51:21.448Z,100011.69
2023-04-14T20:53:48.478Z,99944.63
2023-04-14T20:56:14.916Z,99927.59
2023-04-14T20:58:41.276Z,99914.09
2023-04-14T21:01:07.796Z,100002.97
2023-04-14T21:03:34.661Z,99952.50
2023-04-14T21:06:01.939Z,100004.59
2023-04-14T21:08:29.652Z,99886.09
2023-04-14T21:11:15.703Z,100005.06
2023-04-14T21:15:26.594Z,99912.19
2023-04-14T21:16:29.901Z,99977.75
2023-04-14T21:18:56.707Z,100006.22
2023-04-14T21:21:23.118Z,99999.75
2023-04-14T21:23:49.453Z,99977.25
2023-04-14T21:26:16.535Z,100003.09
2023-04-14T21:28:43.013Z,100010.94
2023-04-14T21:31:10.260Z,99973.22
2023-04-14T21:33:39.306Z,100022.94
2023-04-14T21:36:05.856Z,99964.34
2023-04-14T21:38:32.320Z,99998.66
2023-04-14T21:40:58.751Z,100023.41
2023-04-14T21:43:25.073Z,100014.41
2023-04-14T21:45:51.839Z,99990.22
2023-04-14T21:48:19.009Z,99964.25
2023-04-14T21:50:45.629Z,99917.44
2023-04-14T21:53:12.324Z,99973.69
2023-04-14T21:55:38.734Z,99983.63
2023-04-14T21:58:05.556Z,99877.19
2023-04-14T22:00:32.024Z,100003.72
2023-04-14T22:02:58.668Z,100007.50
2023-04-14T22:05:25.188Z,99877.78
2023-04-14T22:07:51.555Z,100008.50
2023-04-14T22:10:17.982Z,99908.56
2023-04-14T22:12:45.574Z,99997.47
2023-04-14T22:15:11.972Z,99984.16
2023-04-14T22:17:38.802Z,100004.69
2023-04-14T22:20:06.231Z,99945.13
2023-04-14T22:22:32.927Z,100012.00
2023-04-14T22:24:59.297Z,99979.63
2023-04-14T22:27:26.028Z,99979.84
2023-04-14T22:29:52.403Z,99922.97
2023-04-14T22:32:18.743Z,100028.09
2023-04-14T22:34:45.691Z,100015.28
2023-04-14T22:37:12.074Z,100028.31
2023-04-14T22:39:38.401Z,99967.75
2023-04-14T22:42:05.153Z,99975.56
2023-04-14T22:44:31.636Z,100002.13
2023-04-14T22:46:58.376Z,99963.69
2023-04-14T22:49:25.114Z,99989.34
2023-04-14T22:51:51.765Z,100033.91
2023-04-14T22:54:18.127Z,100005.06
2023-04-14T22:56:44.474Z,100003.59
2023-04-14T22:59:10.828Z,99902.97
2023-04-14T23:01:37.385Z,100044.09
2023-04-14T23:04:03.902Z,100004.81
2023-04-14T23:06:30.356Z,99926.03
2023-04-14T23:08:57.013Z,100005.03
2023-04-14T23:11:23.484Z,99997.38
2023-04-14T23:13:50.101Z,99983.63
2023-04-14T23:16:20.109Z,100008.47
2023-04-14T23:18:52.203Z,99986.94
2023-04-14T23:21:20.589Z,100027.84
2023-04-14T23:23:46.995Z,100016.97
2023-04-14T23:26:13.481Z,99948.88
2023-04-14T23:28:39.876Z,99965.53
2023-04-14T23:31:06.460Z,100013.25
2023-04-14T23:33:32.865Z,99929.03
2023-04-14T23:35:59.300Z,99937.94
2023-04-14T23:38:26.122Z,100017.63
2023-04-14T23:40:58.496Z,99950.56
2023-04-14T23:43:25.789Z,99908.47
2023-04-14T23:45:52.494Z,100037.91
2023-04-14T23:48:18.979Z,100057.69
2023-04-14T23:50:59.663Z,100005.50
2023-04-14T23:53:31.704Z,100023.44
2023-04-14T23:55:58.476Z,100026.34
2023-04-14T23:58:26.938Z,99951.97
